| Temperature (°F) | Max | Average | Min |
|---|---|---|---|
| Max Temperature | 98 | 92.84 | 85 |
| Avg Temperature | 86.88 | 82.31 | 77.02 |
| Min Temperature | 78 | 75 | 71 |
| Dew Point (°F) | Max | Average | Min |
|---|---|---|---|
| Dew Point | 79 | 73.7 | 64 |
| Precipitation (in) | Max | Average | Min | Sum |
|---|---|---|---|---|
| Precipitation | 1.93 | 0.27 | 0.00 | 8.25 |
| Snowdepth | 0.00 | 0.00 | 0.00 | 0.00 |
| Wind (mph) | Max | Average | Min |
|---|---|---|---|
| Wind | 29 | 6.12 | 0 |
| Gust Wind | 44 | 1.88 | 0 |
| Sea Level Pressure (in) | Max | Average | Min |
|---|---|---|---|
| Sea Level Pressure | 30.09 | 29.95 | 29.78 |
| Date | Temperature (°F) | Dew Point (°F) | Humidity (%) | Wind Speed (mph) | Pressure (in) | Precipitation (in) | ||||||||||
|---|---|---|---|---|---|---|---|---|---|---|---|---|---|---|---|---|
| Max | Avg | Min | Max | Avg | Min | Max | Avg | Min | Max | Avg | Min | Max | Avg | Min | ||
| 7/31/2025 | 95 | 84.6 | 78 | 78 | 75.1 | 71 | 94 | 75.0 | 46 | 24 | 6.3 | 0 | 30.0 | 30.0 | 29.9 | 0.00 |
| 7/30/2025 | 96 | 86.2 | 76 | 76 | 73.6 | 70 | 94 | 67.9 | 43 | 13 | 6.5 | 0 | 30.0 | 29.9 | 29.9 | 1.37 |
| 7/29/2025 | 98 | 84.8 | 77 | 76 | 73.8 | 70 | 93 | 71.7 | 41 | 21 | 7.2 | 0 | 30.0 | 29.9 | 29.9 | 0.00 |
| 7/28/2025 | 98 | 86.9 | 78 | 76 | 74.1 | 72 | 90 | 67.4 | 46 | 10 | 4.8 | 0 | 30.0 | 30.0 | 29.9 | 0.00 |
| 7/27/2025 | 97 | 86.5 | 76 | 76 | 73.3 | 72 | 94 | 66.6 | 47 | 12 | 5.5 | 0 | 30.0 | 30.0 | 29.9 | 0.00 |
| 7/26/2025 | 95 | 85.3 | 75 | 76 | 72.5 | 69 | 97 | 68.1 | 46 | 12 | 3.8 | 0 | 30.1 | 30.0 | 30.0 | 0.00 |
| 7/25/2025 | 92 | 84.3 | 76 | 77 | 75.1 | 72 | 96 | 74.4 | 57 | 14 | 6.8 | 0 | 30.0 | 30.0 | 30.0 | 0.13 |
| 7/24/2025 | 93 | 82.0 | 74 | 77 | 74.6 | 72 | 97 | 79.8 | 50 | 10 | 5.6 | 0 | 30.0 | 30.0 | 30.0 | 0.48 |
| 7/23/2025 | 91 | 80.0 | 74 | 76 | 73.9 | 72 | 96 | 82.6 | 55 | 26 | 6.6 | 0 | 30.0 | 29.9 | 29.9 | 0.02 |
| 7/22/2025 | 90 | 81.9 | 77 | 78 | 75.0 | 72 | 90 | 80.3 | 63 | 10 | 6.7 | 0 | 29.9 | 29.9 | 29.8 | 0.00 |
| 7/21/2025 | 95 | 85.8 | 77 | 77 | 73.7 | 68 | 96 | 69.4 | 44 | 13 | 6.7 | 0 | 30.0 | 29.9 | 29.9 | 0.61 |
| 7/20/2025 | 96 | 83.6 | 77 | 76 | 73.9 | 71 | 90 | 74.4 | 46 | 18 | 4.6 | 0 | 30.1 | 30.0 | 29.9 | 0.00 |
| 7/19/2025 | 96 | 85.6 | 77 | 77 | 73.9 | 70 | 93 | 69.9 | 44 | 12 | 5.1 | 0 | 30.1 | 30.1 | 30.0 | 0.00 |
| 7/18/2025 | 95 | 84.9 | 76 | 79 | 74.8 | 71 | 96 | 73.3 | 46 | 14 | 6.1 | 0 | 30.1 | 30.0 | 30.0 | 0.00 |
| 7/17/2025 | 92 | 82.8 | 76 | 77 | 74.2 | 69 | 97 | 76.5 | 50 | 13 | 6.5 | 0 | 30.0 | 30.0 | 29.9 | 0.32 |
| 7/16/2025 | 92 | 79.6 | 73 | 77 | 73.9 | 69 | 97 | 83.6 | 55 | 21 | 7.8 | 0 | 30.0 | 29.9 | 29.9 | 1.22 |
| 7/15/2025 | 85 | 77.0 | 74 | 77 | 74.2 | 72 | 100 | 91.6 | 69 | 24 | 6.8 | 0 | 29.9 | 29.9 | 29.8 | 0.27 |
| 7/14/2025 | 92 | 79.3 | 73 | 75 | 72.9 | 69 | 94 | 81.8 | 61 | 18 | 8.2 | 0 | 30.0 | 29.9 | 29.9 | 0.12 |
| 7/13/2025 | 93 | 81.9 | 73 | 75 | 72.9 | 71 | 94 | 75.5 | 50 | 15 | 7.4 | 0 | 30.0 | 30.0 | 29.9 | 0.00 |
| 7/12/2025 | 95 | 80.7 | 74 | 74 | 71.1 | 67 | 93 | 74.1 | 46 | 28 | 5.6 | 0 | 30.1 | 30.0 | 30.0 | 0.00 |
| 7/11/2025 | 94 | 83.4 | 75 | 73 | 71.9 | 69 | 87 | 69.6 | 45 | 16 | 4.6 | 0 | 30.0 | 30.0 | 30.0 | 0.00 |
| 7/10/2025 | 94 | 82.5 | 75 | 75 | 72.5 | 70 | 94 | 73.6 | 46 | 15 | 5.1 | 0 | 30.0 | 30.0 | 29.9 | 0.57 |
| 7/9/2025 | 95 | 82.7 | 75 | 76 | 71.7 | 64 | 90 | 71.7 | 37 | 29 | 6.6 | 0 | 30.0 | 30.0 | 29.9 | 0.00 |
| 7/8/2025 | 93 | 84.5 | 75 | 78 | 73.1 | 68 | 100 | 71.3 | 47 | 9 | 4.0 | 0 | 30.1 | 30.0 | 30.0 | 0.01 |
| 7/7/2025 | 91 | 82.9 | 75 | 77 | 74.9 | 73 | 100 | 77.9 | 55 | 16 | 6.3 | 0 | 30.0 | 30.0 | 29.9 | 0.00 |
| 7/6/2025 | 91 | 81.7 | 75 | 77 | 74.4 | 70 | 100 | 80.3 | 53 | 15 | 7.0 | 0 | 30.0 | 29.9 | 29.8 | 0.03 |
| 7/5/2025 | 87 | 78.5 | 74 | 78 | 75.2 | 74 | 100 | 89.9 | 69 | 12 | 5.1 | 0 | 29.9 | 29.8 | 29.8 | 0.35 |
| 7/4/2025 | 88 | 77.9 | 74 | 78 | 75.3 | 73 | 100 | 92.1 | 70 | 14 | 5.0 | 0 | 29.9 | 29.8 | 29.8 | 1.93 |
| 7/3/2025 | 88 | 78.1 | 73 | 76 | 74.6 | 73 | 100 | 89.9 | 65 | 14 | 7.4 | 0 | 29.9 | 29.8 | 29.8 | 0.68 |
| 7/2/2025 | 90 | 77.4 | 72 | 76 | 73.4 | 72 | 100 | 88.3 | 59 | 24 | 7.9 | 0 | 30.0 | 29.9 | 29.9 | 0.13 |
| 7/1/2025 | 91 | 78.6 | 71 | 74 | 71.3 | 68 | 100 | 80.6 | 50 | 21 | 6.4 | 0 | 30.0 | 30.0 | 29.9 | 0.01 |